createdAt,value
2023-01-25T00:01:30.953Z,99385.09
2023-01-25T00:03:58.547Z,99389.38
2023-01-25T00:06:25.271Z,99380.78
2023-01-25T00:08:52.254Z,99390.22
2023-01-25T00:11:20.251Z,99378.25
2023-01-25T00:13:47.022Z,99384.34
2023-01-25T00:16:13.788Z,99387.78
2023-01-25T00:18:40.493Z,99379.28
2023-01-25T00:21:19.655Z,99378.44
2023-01-25T00:23:46.571Z,99383.56
2023-01-25T00:26:13.343Z,99383.56
2023-01-25T00:28:40.537Z,99387.81
2023-01-25T00:31:11.175Z,99382.66
2023-01-25T00:33:37.810Z,99381.78
2023-01-25T00:36:38.349Z,99379.22
2023-01-25T00:39:06.988Z,99374.97
2023-01-25T00:41:33.688Z,99378.47
2023-01-25T00:44:00.461Z,99375.06
2023-01-25T00:46:27.485Z,99375.91
2023-01-25T00:48:55.481Z,99364.78
2023-01-25T00:51:24.162Z,99375.88
2023-01-25T00:53:50.977Z,99369.84
2023-01-25T00:56:18.737Z,99373.22
2023-01-25T00:58:45.487Z,99370.69
2023-01-25T01:01:13.516Z,99356.13
2023-01-25T01:03:40.277Z,99366.41
2023-01-25T01:06:12.091Z,99363.03
2023-01-25T01:08:41.549Z,99363.91
2023-01-25T01:11:12.517Z,99357.13
2023-01-25T01:13:40.671Z,99356.25
2023-01-25T01:16:11.976Z,99364.03
2023-01-25T01:18:42.759Z,99355.56
2023-01-25T01:21:10.764Z,99364.22
2023-01-25T01:23:37.862Z,99365.09
2023-01-25T01:26:09.192Z,99360.06
2023-01-25T01:28:39.248Z,99363.47
2023-01-25T01:31:13.862Z,99372.88
2023-01-25T01:33:40.907Z,99366.09
2023-01-25T01:36:17.039Z,99365.28
2023-01-25T01:38:44.648Z,99365.31
2023-01-25T01:41:12.042Z,99364.44
2023-01-25T01:43:39.627Z,99366.16
2023-01-25T01:46:34.745Z,99363.59
2023-01-25T01:49:22.068Z,99359.31
2023-01-25T01:52:10.906Z,99361.97
2023-01-25T01:54:54.679Z,99367.16
2023-01-25T01:57:37.933Z,99361.28
2023-01-25T02:00:15.748Z,99358.72
2023-01-25T02:02:42.867Z,99357.00
2023-01-25T02:05:19.770Z,99359.59
2023-01-25T02:07:51.692Z,99361.31
2023-01-25T02:10:20.063Z,99363.00
2023-01-25T02:12:48.593Z,99369.84
2023-01-25T02:15:15.612Z,99370.69
2023-01-25T02:17:42.986Z,99370.66
2023-01-25T02:20:37.267Z,99364.66
2023-01-25T02:23:14.150Z,99359.56
2023-01-25T02:25:41.449Z,99357.84
2023-01-25T02:28:30.452Z,99359.50
2023-01-25T02:30:57.191Z,99354.34
2023-01-25T02:33:25.868Z,99355.16
2023-01-25T02:36:07.527Z,99354.28
2023-01-25T02:38:45.310Z,99351.63
2023-01-25T02:41:39.967Z,99353.28
2023-01-25T02:44:15.313Z,99347.31
2023-01-25T02:46:47.836Z,99349.88
2023-01-25T02:49:16.475Z,99353.41
2023-01-25T02:51:49.160Z,99350.06
2023-01-25T02:54:18.399Z,99351.81
2023-01-25T02:56:45.409Z,99345.00
2023-01-25T02:59:13.325Z,99339.00
2023-01-25T03:01:42.859Z,99345.81
2023-01-25T03:04:10.101Z,99339.88
2023-01-25T03:06:38.679Z,99338.13
2023-01-25T03:09:09.396Z,99344.13
2023-01-25T03:11:36.259Z,99345.81
2023-01-25T03:14:03.418Z,99334.72
2023-01-25T03:16:31.862Z,99333.06
2023-01-25T03:18:58.631Z,99322.78
2023-01-25T03:21:25.875Z,99324.47
2023-01-25T03:24:00.473Z,99325.38
2023-01-25T03:26:28.999Z,99334.78
2023-01-25T03:28:55.745Z,99332.22
2023-01-25T03:31:22.683Z,99324.47
2023-01-25T03:33:49.707Z,99327.88
2023-01-25T03:36:16.606Z,99328.72
2023-01-25T03:38:43.428Z,99321.88
2023-01-25T03:41:12.220Z,99321.88
2023-01-25T03:43:39.506Z,99314.16
2023-01-25T03:46:06.488Z,99315.91
2023-01-25T03:48:33.600Z,99313.34
2023-01-25T03:51:00.734Z,99309.13
2023-01-25T03:53:30.169Z,99301.47
2023-01-25T03:56:02.013Z,99305.75
2023-01-25T03:58:30.469Z,99304.94
2023-01-25T04:01:00.568Z,99301.50
2023-01-25T04:03:30.309Z,99306.66
2023-01-25T04:05:59.173Z,99304.97
2023-01-25T04:08:26.838Z,99299.00
2023-01-25T04:11:02.124Z,99301.53
2023-01-25T04:13:28.930Z,99295.53
2023-01-25T04:15:55.954Z,99298.91
2023-01-25T04:18:23.268Z,99290.28
2023-01-25T04:20:57.786Z,99290.28
2023-01-25T04:23:26.607Z,99289.44
2023-01-25T04:25:58.152Z,99280.03
2023-01-25T04:28:26.646Z,99280.91
2023-01-25T04:30:55.512Z,99277.50
2023-01-25T04:33:22.684Z,99269.81
2023-01-25T04:35:49.529Z,99266.34
2023-01-25T04:38:17.123Z,99262.97
2023-01-25T04:40:44.482Z,99259.59
2023-01-25T04:43:17.393Z,99265.50
2023-01-25T04:45:44.427Z,99259.69
2023-01-25T04:48:13.931Z,99254.59
2023-01-25T04:50:42.710Z,99246.09
2023-01-25T04:53:11.963Z,99240.97
2023-01-25T04:55:39.256Z,99242.63
2023-01-25T04:58:06.573Z,99244.34
2023-01-25T05:00:33.526Z,99239.16
2023-01-25T05:03:00.321Z,99237.44
2023-01-25T05:05:27.232Z,99228.84
2023-01-25T05:07:54.010Z,99234.91
2023-01-25T05:10:20.843Z,99229.84
2023-01-25T05:12:47.699Z,99225.56
2023-01-25T05:15:15.019Z,99230.69
2023-01-25T05:17:41.725Z,99228.13
2023-01-25T05:20:09.483Z,99225.56
2023-01-25T05:22:36.210Z,99213.53
2023-01-25T05:25:03.901Z,99228.91
2023-01-25T05:27:30.677Z,99223.72
2023-01-25T05:29:57.866Z,99221.09
2023-01-25T05:32:25.092Z,99229.63
2023-01-25T05:34:52.116Z,99220.28
2023-01-25T05:37:21.466Z,99231.44
2023-01-25T05:39:48.377Z,99222.91
2023-01-25T05:42:18.351Z,99231.53
2023-01-25T05:44:47.518Z,99225.59
2023-01-25T05:47:17.742Z,99228.19
2023-01-25T05:49:44.804Z,99226.56
2023-01-25T05:52:15.529Z,99226.56
2023-01-25T05:54:42.369Z,99228.28
2023-01-25T05:57:09.394Z,99234.28
2023-01-25T05:59:36.430Z,99236.91
2023-01-25T06:02:03.145Z,99230.19
2023-01-25T06:04:29.902Z,99231.88
2023-01-25T06:06:56.694Z,99231.84
2023-01-25T06:09:23.520Z,99222.41
2023-01-25T06:11:50.520Z,99226.66
2023-01-25T06:14:17.591Z,99227.50
2023-01-25T06:16:44.360Z,99225.81
2023-01-25T06:19:13.859Z,99219.88
2023-01-25T06:21:40.834Z,99219.88
2023-01-25T06:24:08.089Z,99218.97
2023-01-25T06:26:34.947Z,99214.69
2023-01-25T06:29:01.787Z,99214.69
2023-01-25T06:31:28.630Z,99213.84
2023-01-25T06:33:55.435Z,99209.56
2023-01-25T06:36:25.309Z,99218.97
2023-01-25T06:38:53.128Z,99212.94
2023-01-25T06:41:20.822Z,99218.91
2023-01-25T06:43:50.615Z,99214.69
2023-01-25T06:46:17.420Z,99219.00
2023-01-25T06:48:44.297Z,99226.69
2023-01-25T06:51:13.692Z,99218.16
2023-01-25T06:53:43.669Z,99213.00
2023-01-25T06:56:22.267Z,99210.44
2023-01-25T06:58:50.527Z,99219.81
2023-01-25T07:01:26.896Z,99202.75
2023-01-25T07:03:57.798Z,99203.63
2023-01-25T07:06:26.381Z,99198.53
2023-01-25T07:08:53.349Z,99207.06
2023-01-25T07:11:20.085Z,99200.31
2023-01-25T07:13:48.500Z,99204.59
2023-01-25T07:16:20.462Z,99205.53
2023-01-25T07:18:47.849Z,99209.75
2023-01-25T07:21:20.204Z,99202.03
2023-01-25T07:23:48.376Z,99203.75
2023-01-25T07:26:21.625Z,99205.44
2023-01-25T07:28:49.679Z,99208.78
2023-01-25T07:31:18.052Z,99198.56
2023-01-25T07:33:51.204Z,99193.41
2023-01-25T07:36:19.061Z,99207.06
2023-01-25T07:38:45.982Z,99210.47
2023-01-25T07:41:13.118Z,99207.06
2023-01-25T07:43:39.986Z,99208.72
2023-01-25T07:46:11.181Z,99206.03
2023-01-25T07:48:39.086Z,99202.59
2023-01-25T07:51:16.401Z,99191.47
2023-01-25T07:53:43.894Z,99187.13
2023-01-25T07:56:12.500Z,99199.06
2023-01-25T07:58:40.016Z,99195.63
2023-01-25T08:01:27.380Z,99198.22
2023-01-25T08:03:57.213Z,99205.06
2023-01-25T08:06:30.621Z,99203.38
2023-01-25T08:08:59.099Z,99206.03
2023-01-25T08:11:30.036Z,99213.78
2023-01-25T08:13:57.194Z,99213.81
2023-01-25T08:16:26.646Z,99207.88
2023-01-25T08:18:59.883Z,99206.16
2023-01-25T08:21:31.276Z,99212.13
2023-01-25T08:24:05.433Z,99203.59
2023-01-25T08:26:32.663Z,99213.84
2023-01-25T08:28:59.573Z,99208.66
2023-01-25T08:31:30.871Z,99211.22
2023-01-25T08:33:59.196Z,99215.47
2023-01-25T08:36:28.043Z,99203.53
2023-01-25T08:39:05.917Z,99199.19
2023-01-25T08:41:35.109Z,99196.59
2023-01-25T08:44:02.499Z,99201.72
2023-01-25T08:46:32.949Z,99198.34
2023-01-25T08:49:02.010Z,99198.31
2023-01-25T08:51:31.431Z,99201.69
2023-01-25T08:54:03.565Z,99199.13
2023-01-25T08:56:30.376Z,99192.28
2023-01-25T08:58:57.215Z,99190.53
2023-01-25T09:01:24.017Z,99187.16
2023-01-25T09:03:51.540Z,99188.00
2023-01-25T09:06:20.126Z,99180.22
2023-01-25T09:08:47.611Z,99188.09
2023-01-25T09:11:19.486Z,99177.06
2023-01-25T09:13:48.656Z,99177.06
2023-01-25T09:16:20.532Z,99170.25
2023-01-25T09:18:49.810Z,99170.16
2023-01-25T09:21:19.155Z,99165.00
2023-01-25T09:23:57.471Z,99157.28
2023-01-25T09:26:32.465Z,99169.16
2023-01-25T09:28:59.561Z,99171.69
2023-01-25T09:31:27.871Z,99175.13
2023-01-25T09:33:54.781Z,99166.59
2023-01-25T09:36:21.500Z,99165.72
2023-01-25T09:38:48.520Z,99169.06
2023-01-25T09:42:06.616Z,99163.00
2023-01-25T09:45:04.179Z,99168.13
2023-01-25T09:47:39.547Z,99159.59
2023-01-25T09:50:38.555Z,99154.44
2023-01-25T09:53:34.114Z,99151.75
2023-01-25T09:56:23.915Z,99158.53
2023-01-25T09:58:58.045Z,99153.41
2023-01-25T10:01:45.634Z,99147.47
2023-01-25T10:04:19.466Z,99141.53
2023-01-25T10:06:59.998Z,99143.25
2023-01-25T10:09:59.788Z,99142.38
2023-01-25T10:12:36.087Z,99142.34
2023-01-25T10:15:17.752Z,99137.22
2023-01-25T10:17:45.241Z,99135.44
2023-01-25T10:20:33.157Z,99139.63
2023-01-25T10:23:31.455Z,99144.09
2023-01-25T10:26:01.100Z,99133.84
2023-01-25T10:28:49.852Z,99132.06
2023-01-25T10:31:46.402Z,99133.72
2023-01-25T10:34:24.222Z,99123.47
2023-01-25T10:36:55.355Z,99126.00
2023-01-25T10:39:22.635Z,99134.56
2023-01-25T10:42:00.330Z,99110.53
2023-01-25T10:44:28.810Z,99118.97
2023-01-25T10:47:03.436Z,99117.94
2023-01-25T10:49:47.836Z,99113.66
2023-01-25T10:52:28.229Z,99105.03
2023-01-25T10:55:17.474Z,99099.91
2023-01-25T10:57:53.212Z,99095.66
2023-01-25T11:00:36.329Z,99088.84
2023-01-25T11:03:03.604Z,99072.63
2023-01-25T11:05:37.951Z,99079.44
2023-01-25T11:08:32.338Z,99069.19
2023-01-25T11:11:00.275Z,99053.78
2023-01-25T11:13:32.330Z,99062.38
2023-01-25T11:16:01.952Z,99059.88
2023-01-25T11:18:35.504Z,99047.06
2023-01-25T11:21:23.154Z,99050.41
2023-01-25T11:24:10.290Z,99040.97
2023-01-25T11:26:40.372Z,99038.31
2023-01-25T11:29:22.203Z,99033.19
2023-01-25T11:31:54.557Z,99040.84
2023-01-25T11:34:27.269Z,99029.69
2023-01-25T11:37:08.567Z,99029.59
2023-01-25T11:39:43.875Z,99029.47
2023-01-25T11:42:31.860Z,99021.72
2023-01-25T11:45:32.746Z,99019.97
2023-01-25T11:48:43.390Z,99012.97
2023-01-25T11:51:35.770Z,99008.84
2023-01-25T11:54:23.835Z,99001.25
2023-01-25T11:57:04.442Z,98996.94
2023-01-25T12:00:03.502Z,98992.63
2023-01-25T12:03:42.246Z,98987.44
2023-01-25T12:06:43.586Z,98985.75
2023-01-25T12:09:57.046Z,98978.88
2023-01-25T12:12:44.536Z,98974.72
2023-01-25T12:15:52.376Z,98964.50
2023-01-25T12:18:45.675Z,98956.94
2023-01-25T12:21:31.933Z,98944.28
2023-01-25T12:24:14.815Z,98945.25
2023-01-25T12:26:53.668Z,98938.34
2023-01-25T12:29:25.547Z,98922.09
2023-01-25T12:32:00.432Z,98917.84
2023-01-25T12:34:38.381Z,98910.97
2023-01-25T12:37:28.770Z,98908.50
2023-01-25T12:40:18.325Z,98898.28
2023-01-25T12:42:53.935Z,98892.31
2023-01-25T12:45:27.638Z,98888.00
2023-01-25T12:48:09.963Z,98885.44
2023-01-25T12:50:57.833Z,98872.53
2023-01-25T12:53:40.811Z,98875.94
2023-01-25T12:56:22.924Z,98863.94
2023-01-25T12:59:05.732Z,98857.19
2023-01-25T13:01:40.454Z,98859.84
2023-01-25T13:04:42.064Z,98857.31
2023-01-25T13:07:24.501Z,98857.19
2023-01-25T13:10:03.066Z,98857.84
2023-01-25T13:12:29.844Z,98851.72
2023-01-25T13:14:56.690Z,98843.88
2023-01-25T13:17:34.821Z,98841.19
2023-01-25T13:20:31.343Z,98843.69
2023-01-25T13:22:59.468Z,98844.47
2023-01-25T13:25:27.262Z,98836.81
2023-01-25T13:28:42.784Z,98845.31
2023-01-25T13:31:09.784Z,98834.22
2023-01-25T13:33:36.823Z,98837.56
2023-01-25T13:36:43.802Z,98830.75
2023-01-25T13:39:25.529Z,98826.59
2023-01-25T13:42:10.447Z,98833.63
2023-01-25T13:44:46.658Z,98817.47
2023-01-25T13:47:18.025Z,98816.75
2023-01-25T13:50:00.539Z,98809.22
2023-01-25T13:52:31.001Z,98811.09
2023-01-25T13:54:59.057Z,98805.97
2023-01-25T13:57:31.467Z,98801.72
2023-01-25T14:00:16.044Z,98792.41
2023-01-25T14:02:47.214Z,98793.22
2023-01-25T14:05:25.796Z,98791.47
2023-01-25T14:07:56.039Z,98784.66
2023-01-25T14:10:27.592Z,98777.88
2023-01-25T14:13:00.013Z,98777.00
2023-01-25T14:15:29.489Z,98774.56
2023-01-25T14:18:22.245Z,98778.91
2023-01-25T14:20:53.684Z,98782.47
2023-01-25T14:23:29.401Z,98782.38
2023-01-25T14:25:59.220Z,98778.13
2023-01-25T14:28:26.960Z,98784.09
2023-01-25T14:30:57.441Z,98789.44
2023-01-25T14:33:30.266Z,98777.56
2023-01-25T14:36:16.278Z,98774.91
2023-01-25T14:38:51.003Z,98762.19
2023-01-25T14:41:33.657Z,98775.22
2023-01-25T14:44:10.908Z,98770.09
2023-01-25T14:46:39.714Z,98772.72
2023-01-25T14:49:25.506Z,98768.53
2023-01-25T14:52:16.223Z,98771.91
2023-01-25T14:55:00.196Z,98774.38
2023-01-25T14:57:35.007Z,98765.81
2023-01-25T15:00:18.256Z,98755.56
2023-01-25T15:02:56.446Z,98746.13
2023-01-25T15:05:29.873Z,98743.56
2023-01-25T15:08:12.922Z,98741.84
2023-01-25T15:11:20.088Z,98740.06
2023-01-25T15:13:47.688Z,98745.22
2023-01-25T15:16:16.341Z,98739.19
2023-01-25T15:18:51.376Z,98734.16
2023-01-25T15:21:34.550Z,98736.72
2023-01-25T15:24:06.849Z,98732.47
2023-01-25T15:26:36.250Z,98737.59
2023-01-25T15:29:22.140Z,98735.09
2023-01-25T15:31:51.235Z,98720.50
2023-01-25T15:34:26.467Z,98723.91
2023-01-25T15:36:53.200Z,98708.50
2023-01-25T15:39:20.928Z,98710.25
2023-01-25T15:41:48.717Z,98715.41
2023-01-25T15:44:17.387Z,98712.06
2023-01-25T15:46:52.206Z,98702.69
2023-01-25T15:49:27.555Z,98700.06
2023-01-25T15:51:57.581Z,98700.97
2023-01-25T15:54:24.660Z,98698.44
2023-01-25T15:56:56.127Z,98695.09
2023-01-25T15:59:23.211Z,98689.13
2023-01-25T16:01:50.023Z,98692.66
2023-01-25T16:04:16.826Z,98691.03
2023-01-25T16:06:50.897Z,98694.53
2023-01-25T16:09:27.140Z,98684.38
2023-01-25T16:11:57.483Z,98690.44
2023-01-25T16:14:28.987Z,98698.22
2023-01-25T16:17:03.993Z,98688.84
2023-01-25T16:19:32.114Z,98678.66
2023-01-25T16:21:59.102Z,98683.78
2023-01-25T16:24:25.933Z,98685.50
2023-01-25T16:26:58.191Z,98670.97
2023-01-25T16:29:25.608Z,98669.25
2023-01-25T16:31:54.183Z,98666.63
2023-01-25T16:34:21.959Z,98674.22
2023-01-25T16:36:50.860Z,98669.06
2023-01-25T16:39:23.928Z,98672.41
2023-01-25T16:41:53.739Z,98671.53
2023-01-25T16:44:20.770Z,98664.59
2023-01-25T16:46:51.057Z,98667.91
2023-01-25T16:49:21.927Z,98653.44
2023-01-25T16:51:51.835Z,98653.44
2023-01-25T16:54:20.396Z,98657.75
2023-01-25T16:56:48.838Z,98652.63
2023-01-25T16:59:17.410Z,98661.13
2023-01-25T17:01:44.887Z,98656.88
2023-01-25T17:04:12.237Z,98648.44
2023-01-25T17:06:43.609Z,98644.34
2023-01-25T17:09:22.967Z,98639.41
2023-01-25T17:11:51.568Z,98632.91
2023-01-25T17:14:20.069Z,98633.91
2023-01-25T17:16:50.588Z,98629.78
2023-01-25T17:19:18.247Z,98634.06
2023-01-25T17:21:46.177Z,98626.38
2023-01-25T17:24:19.080Z,98627.06
2023-01-25T17:26:46.200Z,98623.53
2023-01-25T17:29:13.689Z,98622.66
2023-01-25T17:31:41.940Z,98622.97
2023-01-25T17:34:13.206Z,98630.06
2023-01-25T17:36:39.912Z,98617.34
2023-01-25T17:39:07.907Z,98616.50
2023-01-25T17:41:34.743Z,98620.03
2023-01-25T17:44:01.854Z,98618.28
2023-01-25T17:46:34.971Z,98627.59
2023-01-25T17:49:11.376Z,98623.34
2023-01-25T17:51:38.596Z,98613.03
2023-01-25T17:54:06.361Z,98606.94
2023-01-25T17:56:34.127Z,98608.53
2023-01-25T17:59:02.092Z,98603.31
2023-01-25T18:01:31.964Z,98602.44
2023-01-25T18:04:00.477Z,98607.41
2023-01-25T18:06:30.652Z,98609.03
2023-01-25T18:09:01.628Z,98601.31
2023-01-25T18:11:35.147Z,98602.19
2023-01-25T18:14:09.177Z,98592.84
2023-01-25T18:16:39.086Z,98596.25
2023-01-25T18:19:07.531Z,98596.19
2023-01-25T18:21:35.501Z,98591.13
2023-01-25T18:24:22.154Z,98596.19
2023-01-25T18:26:50.819Z,98594.56
2023-01-25T18:29:17.497Z,98588.59
2023-01-25T18:31:45.373Z,98572.44
2023-01-25T18:34:12.150Z,98567.31
2023-01-25T18:36:38.857Z,98578.44
2023-01-25T18:39:06.773Z,98568.09
2023-01-25T18:41:33.517Z,98565.53
2023-01-25T18:44:00.252Z,98562.13
2023-01-25T18:46:27.091Z,98566.28
2023-01-25T18:48:53.848Z,98556.03
2023-01-25T18:51:22.464Z,98564.50
2023-01-25T18:53:49.553Z,98560.16
2023-01-25T18:56:21.632Z,98568.69
2023-01-25T18:58:49.943Z,98565.25
2023-01-25T19:01:22.242Z,98557.50
2023-01-25T19:03:51.100Z,98566.88
2023-01-25T19:06:19.424Z,98553.19
2023-01-25T19:08:51.658Z,98559.97
2023-01-25T19:11:20.640Z,98549.72
2023-01-25T19:13:48.103Z,98538.53
2023-01-25T19:16:25.821Z,98551.34
2023-01-25T19:18:54.819Z,98544.53
2023-01-25T19:21:25.970Z,98550.50
2023-01-25T19:23:54.219Z,98551.50
2023-01-25T19:26:24.442Z,98536.13
2023-01-25T19:28:52.391Z,98536.97
2023-01-25T19:31:25.903Z,98537.91
2023-01-25T19:34:00.692Z,98535.38
2023-01-25T19:36:30.994Z,98531.00
2023-01-25T19:38:57.799Z,98516.50
2023-01-25T19:41:27.968Z,98526.75
2023-01-25T19:43:59.793Z,98526.75
2023-01-25T19:46:30.420Z,98524.19
2023-01-25T19:48:59.511Z,98525.88
2023-01-25T19:51:33.096Z,98508.81
2023-01-25T19:54:07.387Z,98513.16
2023-01-25T19:56:39.351Z,98505.56
2023-01-25T19:59:13.606Z,98505.69
2023-01-25T20:01:44.187Z,98507.50
2023-01-25T20:04:14.779Z,98503.25
2023-01-25T20:06:41.863Z,98495.56
2023-01-25T20:09:11.955Z,98490.34
2023-01-25T20:11:39.591Z,98487.84
2023-01-25T20:14:07.845Z,98481.97
2023-01-25T20:16:35.454Z,98485.47
2023-01-25T20:19:03.456Z,98492.31
2023-01-25T20:21:31.699Z,98487.19
2023-01-25T20:24:03.276Z,98488.88
2023-01-25T20:26:38.708Z,98487.19
2023-01-25T20:29:07.444Z,98482.22
2023-01-25T20:31:48.128Z,98489.13
2023-01-25T20:34:18.785Z,98478.84
2023-01-25T20:36:46.834Z,98473.56
2023-01-25T20:39:18.253Z,98470.09
2023-01-25T20:41:46.993Z,98464.03
2023-01-25T20:44:17.055Z,98460.75
2023-01-25T20:46:44.325Z,98454.00
2023-01-25T20:49:16.771Z,98448.16
2023-01-25T20:51:44.604Z,98439.78
2023-01-25T20:54:11.495Z,98435.66
2023-01-25T20:56:38.941Z,98436.75
2023-01-25T20:59:06.095Z,98424.03
2023-01-25T21:01:36.611Z,98426.50
2023-01-25T21:04:07.817Z,98415.94
2023-01-25T21:06:35.210Z,98416.72
2023-01-25T21:09:03.355Z,98415.91
2023-01-25T21:11:30.390Z,98407.34
2023-01-25T21:13:58.238Z,98424.31
2023-01-25T21:16:25.051Z,98422.53
2023-01-25T21:18:55.597Z,98422.44
2023-01-25T21:21:28.906Z,98414.78
2023-01-25T21:23:59.652Z,98419.88
2023-01-25T21:26:32.901Z,98408.75
2023-01-25T21:29:01.666Z,98402.69
2023-01-25T21:31:35.215Z,98402.69
2023-01-25T21:34:03.771Z,98396.13
2023-01-25T21:36:30.707Z,98392.25
2023-01-25T21:38:58.187Z,98398.47
2023-01-25T21:41:29.382Z,98403.69
2023-01-25T21:44:17.720Z,98402.66
2023-01-25T21:47:06.085Z,98394.78
2023-01-25T21:49:51.045Z,98377.59
2023-01-25T21:52:17.768Z,98370.88
2023-01-25T21:54:44.514Z,98367.53
2023-01-25T21:57:11.556Z,98365.72
2023-01-25T21:59:40.656Z,98364.69
2023-01-25T22:02:12.990Z,98360.38
2023-01-25T22:04:39.963Z,98359.28
2023-01-25T22:07:09.054Z,98352.44
2023-01-25T22:09:35.870Z,98352.38
2023-01-25T22:12:02.743Z,98352.38
2023-01-25T22:14:29.751Z,98359.19
2023-01-25T22:16:56.565Z,98349.78
2023-01-25T22:19:23.670Z,98348.06
2023-01-25T22:21:53.525Z,98343.75
2023-01-25T22:24:20.358Z,98342.16
2023-01-25T22:27:17.959Z,98349.97
2023-01-25T22:29:44.638Z,98346.63
2023-01-25T22:32:11.358Z,98343.41
2023-01-25T22:34:38.062Z,98336.75
2023-01-25T22:37:04.894Z,98331.59
2023-01-25T22:39:31.602Z,98338.22
2023-01-25T22:41:58.335Z,98336.50
2023-01-25T22:44:25.158Z,98332.22
2023-01-25T22:46:53.634Z,98328.81
2023-01-25T22:49:20.334Z,98328.75
2023-01-25T22:51:47.212Z,98326.88
2023-01-25T22:54:14.043Z,98318.31
2023-01-25T22:56:40.803Z,98329.44
2023-01-25T22:59:11.558Z,98332.78
2023-01-25T23:01:38.265Z,98319.97
2023-01-25T23:04:05.241Z,98316.53
2023-01-25T23:06:36.286Z,98311.41
2023-01-25T23:09:06.134Z,98307.91
2023-01-25T23:11:37.868Z,98311.22
2023-01-25T23:14:27.257Z,98309.44
2023-01-25T23:17:14.145Z,98311.13
2023-01-25T23:19:40.868Z,98310.22
2023-01-25T23:22:07.567Z,98321.28
2023-01-25T23:24:34.328Z,98321.28
2023-01-25T23:27:01.019Z,98312.69
2023-01-25T23:29:27.789Z,98319.50
2023-01-25T23:31:54.583Z,98312.69
2023-01-25T23:34:21.426Z,98312.69
2023-01-25T23:36:48.180Z,98306.78
2023-01-25T23:39:15.063Z,98304.28
2023-01-25T23:41:41.761Z,98294.88
2023-01-25T23:44:09.667Z,98291.41
2023-01-25T23:46:36.694Z,98293.09
2023-01-25T23:49:03.497Z,98293.91
2023-01-25T23:51:30.225Z,98296.47
2023-01-25T23:53:58.227Z,98289.75
2023-01-25T23:56:25.083Z,98285.63
2023-01-25T23:58:51.797Z,98280.50
